createdAt,value
2024-01-20T00:02:20.935Z,20.05
2024-01-20T00:05:24.166Z,20.06
2024-01-20T00:08:27.699Z,20.07
2024-01-20T00:11:30.581Z,20.09
2024-01-20T00:14:34.829Z,20.11
2024-01-20T00:17:38.375Z,20.14
2024-01-20T00:20:41.476Z,20.11
2024-01-20T00:23:44.540Z,20.14
2024-01-20T00:26:48.281Z,20.14
2024-01-20T00:29:52.758Z,20.16
2024-01-20T00:32:55.787Z,20.19
2024-01-20T00:35:58.915Z,20.15
2024-01-20T00:39:01.674Z,20.22
2024-01-20T00:42:04.544Z,20.23
2024-01-20T00:45:09.864Z,20.23
2024-01-20T00:48:12.686Z,20.21
2024-01-20T00:51:15.462Z,20.33
2024-01-20T00:54:18.382Z,20.24
2024-01-20T00:57:21.134Z,20.20
2024-01-20T01:00:27.473Z,20.16
2024-01-20T01:03:30.284Z,20.19
2024-01-20T01:06:33.230Z,20.08
2024-01-20T01:09:36.144Z,20.01
2024-01-20T01:12:38.895Z,19.95
2024-01-20T01:15:43.211Z,19.91
2024-01-20T01:18:46.000Z,19.92
2024-01-20T01:21:48.809Z,19.85
2024-01-20T01:24:51.714Z,19.78
2024-01-20T01:27:54.424Z,19.70
2024-01-20T01:30:58.532Z,19.68
2024-01-20T01:34:01.298Z,19.62
2024-01-20T01:37:04.231Z,19.64
2024-01-20T01:40:07.853Z,19.58
2024-01-20T01:43:10.691Z,19.52
2024-01-20T01:46:15.415Z,19.51
2024-01-20T01:49:18.635Z,19.54
2024-01-20T01:52:23.097Z,19.48
2024-01-20T01:55:26.688Z,19.40
2024-01-20T01:58:29.778Z,19.34
2024-01-20T02:01:34.041Z,19.39
2024-01-20T02:04:36.848Z,19.36
2024-01-20T02:07:41.253Z,19.24
2024-01-20T02:10:44.277Z,19.19
2024-01-20T02:13:47.530Z,19.24
2024-01-20T02:16:51.729Z,19.16
2024-01-20T02:19:54.636Z,19.11
2024-01-20T02:22:58.778Z,19.12
2024-01-20T02:26:01.606Z,19.08
2024-01-20T02:29:04.431Z,19.07
2024-01-20T02:32:07.446Z,19.17
2024-01-20T02:35:10.702Z,19.04
2024-01-20T02:38:14.885Z,19.00
2024-01-20T02:41:17.622Z,18.96
2024-01-20T02:44:20.544Z,18.89
2024-01-20T02:47:23.392Z,18.97
2024-01-20T02:50:26.409Z,18.86
2024-01-20T02:53:31.006Z,18.84
2024-01-20T02:56:33.793Z,18.83
2024-01-20T02:59:36.547Z,18.78
2024-01-20T03:02:39.833Z,18.75
2024-01-20T03:05:42.937Z,18.76
2024-01-20T03:08:47.217Z,18.69
2024-01-20T03:11:50.351Z,18.70
2024-01-20T03:14:53.376Z,18.65
2024-01-20T03:17:56.395Z,18.66
2024-01-20T03:20:59.422Z,18.61
2024-01-20T03:24:03.991Z,18.58
2024-01-20T03:27:06.867Z,18.57
2024-01-20T03:30:13.513Z,18.55
2024-01-20T03:33:16.564Z,18.55
2024-01-20T03:36:19.574Z,18.66
2024-01-20T03:39:23.854Z,18.76
2024-01-20T03:42:26.837Z,18.78
2024-01-20T03:45:29.823Z,18.82
2024-01-20T03:48:33.268Z,18.97
2024-01-20T03:51:36.280Z,19.07
2024-01-20T03:54:40.865Z,19.19
2024-01-20T03:57:44.245Z,19.23
2024-01-20T04:00:47.223Z,19.28
2024-01-20T04:03:50.318Z,19.35
2024-01-20T04:06:53.301Z,19.34
2024-01-20T04:09:57.604Z,19.42
2024-01-20T04:13:00.466Z,19.45
2024-01-20T04:16:03.644Z,19.47
2024-01-20T04:19:06.648Z,19.51
2024-01-20T04:22:09.516Z,19.53
2024-01-20T04:25:14.115Z,19.56
2024-01-20T04:28:16.928Z,19.60
2024-01-20T04:31:19.812Z,19.61
2024-01-20T04:34:22.638Z,19.64
2024-01-20T04:37:25.533Z,19.65
2024-01-20T04:40:29.892Z,19.65
2024-01-20T04:43:32.739Z,19.68
2024-01-20T04:46:35.578Z,19.74
2024-01-20T04:49:38.502Z,19.71
2024-01-20T04:52:41.483Z,19.75
2024-01-20T04:55:45.944Z,19.76
2024-01-20T04:58:48.809Z,19.77
2024-01-20T05:01:51.741Z,19.70
2024-01-20T05:04:54.562Z,19.68
2024-01-20T05:07:57.350Z,19.59
2024-01-20T05:11:01.699Z,19.52
2024-01-20T05:14:05.019Z,19.43
2024-01-20T05:17:07.927Z,19.32
2024-01-20T05:20:14.561Z,19.23
2024-01-20T05:23:17.401Z,19.23
2024-01-20T05:26:21.623Z,19.20
2024-01-20T05:29:24.453Z,19.15
2024-01-20T05:32:27.660Z,19.08
2024-01-20T05:35:30.590Z,18.98
2024-01-20T05:38:33.406Z,18.96
2024-01-20T05:41:37.693Z,18.84
2024-01-20T05:44:41.171Z,18.84
2024-01-20T05:47:44.046Z,18.78
2024-01-20T05:50:48.363Z,18.83
2024-01-20T05:53:52.420Z,18.76
2024-01-20T05:56:56.689Z,18.80
2024-01-20T05:59:59.803Z,18.77
2024-01-20T06:03:02.725Z,18.73
2024-01-20T06:06:06.335Z,18.75
2024-01-20T06:09:09.552Z,18.69
2024-01-20T06:12:14.749Z,18.63
2024-01-20T06:15:17.724Z,18.62
2024-01-20T06:18:20.682Z,18.58
2024-01-20T06:21:24.045Z,18.55
2024-01-20T06:24:26.943Z,18.54
2024-01-20T06:27:31.725Z,18.50
2024-01-20T06:30:34.670Z,18.45
2024-01-20T06:33:37.872Z,18.41
2024-01-20T06:36:40.900Z,18.36
2024-01-20T06:39:43.693Z,18.35
2024-01-20T06:42:48.003Z,18.32
2024-01-20T06:45:50.874Z,18.30
2024-01-20T06:48:53.789Z,18.29
2024-01-20T06:51:56.639Z,18.26
2024-01-20T06:54:59.464Z,18.23
2024-01-20T06:58:04.476Z,18.19
2024-01-20T07:01:07.381Z,18.21
2024-01-20T07:04:10.716Z,18.16
2024-01-20T07:07:14.192Z,18.16
2024-01-20T07:10:17.295Z,18.08
2024-01-20T07:13:21.582Z,18.08
2024-01-20T07:16:24.748Z,18.06
2024-01-20T07:19:27.617Z,18.05
2024-01-20T07:22:30.450Z,18.01
2024-01-20T07:25:37.619Z,18.01
2024-01-20T07:28:41.949Z,17.95
2024-01-20T07:31:45.209Z,17.91
2024-01-20T07:34:48.163Z,17.95
2024-01-20T07:37:51.079Z,17.87
2024-01-20T07:40:54.941Z,17.90
2024-01-20T07:43:59.349Z,17.84
2024-01-20T07:47:02.227Z,17.84
2024-01-20T07:50:05.394Z,17.84
2024-01-20T07:53:08.286Z,17.82
2024-01-20T07:56:12.867Z,17.76
2024-01-20T07:59:18.100Z,17.76
2024-01-20T08:02:20.956Z,17.89
2024-01-20T08:05:23.744Z,17.81
2024-01-20T08:08:26.508Z,17.78
2024-01-20T08:11:29.278Z,17.73
2024-01-20T08:14:33.387Z,17.71
2024-01-20T08:17:36.216Z,17.69
2024-01-20T08:20:39.053Z,17.65
2024-01-20T08:23:41.998Z,17.70
2024-01-20T08:26:46.805Z,17.65
2024-01-20T08:29:51.030Z,17.67
2024-01-20T08:32:53.866Z,17.58
2024-01-20T08:35:56.904Z,17.58
2024-01-20T08:38:59.721Z,17.59
2024-01-20T08:42:02.741Z,17.53
2024-01-20T08:45:07.759Z,17.53
2024-01-20T08:48:10.894Z,17.50
2024-01-20T08:51:13.710Z,17.56
2024-01-20T08:54:17.176Z,17.49
2024-01-20T08:57:20.101Z,17.48
2024-01-20T09:00:24.575Z,17.48
2024-01-20T09:03:27.515Z,17.49
2024-01-20T09:06:30.528Z,17.43
2024-01-20T09:09:33.428Z,17.44
2024-01-20T09:12:36.383Z,17.44
2024-01-20T09:15:40.744Z,17.59
2024-01-20T09:18:43.740Z,17.64
2024-01-20T09:21:46.845Z,17.71
2024-01-20T09:24:49.659Z,17.76
2024-01-20T09:27:52.460Z,17.84
2024-01-20T09:30:56.573Z,17.98
2024-01-20T09:34:00.713Z,18.07
2024-01-20T09:37:04.271Z,18.12
2024-01-20T09:40:07.777Z,18.17
2024-01-20T09:43:10.653Z,18.28
2024-01-20T09:46:14.803Z,18.29
2024-01-20T09:49:18.665Z,18.33
2024-01-20T09:52:27.067Z,18.44
2024-01-20T09:55:29.798Z,18.44
2024-01-20T09:58:34.893Z,18.52
2024-01-20T10:01:39.550Z,18.56
2024-01-20T10:04:44.481Z,18.58
2024-01-20T10:07:47.304Z,18.62
2024-01-20T10:10:50.384Z,18.63
2024-01-20T10:13:53.267Z,18.66
2024-01-20T10:16:58.348Z,18.71
2024-01-20T10:20:01.283Z,18.73
2024-01-20T10:23:04.548Z,18.76
2024-01-20T10:26:07.695Z,18.75
2024-01-20T10:29:10.724Z,18.80
2024-01-20T10:32:14.957Z,18.82
2024-01-20T10:35:17.825Z,18.86
2024-01-20T10:38:21.384Z,18.85
2024-01-20T10:41:26.066Z,18.87
2024-01-20T10:44:30.127Z,18.89
2024-01-20T10:47:37.983Z,18.88
2024-01-20T10:50:43.198Z,18.90
2024-01-20T10:53:48.917Z,18.92
2024-01-20T10:56:51.656Z,18.94
2024-01-20T10:59:55.606Z,18.99
2024-01-20T11:03:00.337Z,18.98
2024-01-20T11:06:03.672Z,19.39
2024-01-20T11:09:06.541Z,19.09
2024-01-20T11:12:09.608Z,19.00
2024-01-20T11:15:18.967Z,19.09
2024-01-20T11:18:23.937Z,19.07
2024-01-20T11:21:26.864Z,19.16
2024-01-20T11:24:39.635Z,19.29
2024-01-20T11:27:46.053Z,19.17
2024-01-20T11:30:50.025Z,19.34
2024-01-20T11:33:55.017Z,19.25
2024-01-20T11:36:59.955Z,19.14
2024-01-20T11:40:06.896Z,19.21
2024-01-20T11:43:10.718Z,19.22
2024-01-20T11:46:19.801Z,19.26
2024-01-20T11:49:24.259Z,19.29
2024-01-20T11:52:27.468Z,19.29
2024-01-20T11:55:30.338Z,19.31
2024-01-20T11:58:33.432Z,19.34
2024-01-20T12:01:36.249Z,19.34
2024-01-20T12:04:40.589Z,19.36
2024-01-20T12:07:43.514Z,19.39
2024-01-20T12:10:47.278Z,19.36
2024-01-20T12:13:50.482Z,19.34
2024-01-20T12:16:53.286Z,19.27
2024-01-20T12:19:57.876Z,19.20
2024-01-20T12:23:02.021Z,19.18
2024-01-20T12:26:12.171Z,19.12
2024-01-20T12:29:14.980Z,19.03
2024-01-20T12:32:17.820Z,18.99
2024-01-20T12:35:21.947Z,18.97
2024-01-20T12:38:24.645Z,18.93
2024-01-20T12:41:27.991Z,18.82
2024-01-20T12:44:31.281Z,18.77
2024-01-20T12:47:34.048Z,18.74
2024-01-20T12:50:39.250Z,18.71
2024-01-20T12:53:43.165Z,18.72
2024-01-20T12:56:47.095Z,18.66
2024-01-20T12:59:50.032Z,18.62
2024-01-20T13:02:52.831Z,18.63
2024-01-20T13:05:57.010Z,18.56
2024-01-20T13:08:59.895Z,18.61
2024-01-20T13:12:02.886Z,18.71
2024-01-20T13:15:06.484Z,18.93
2024-01-20T13:18:09.797Z,19.12
2024-01-20T13:21:14.552Z,19.03
2024-01-20T13:24:17.500Z,19.01
2024-01-20T13:27:22.477Z,19.03
2024-01-20T13:30:25.357Z,19.09
2024-01-20T13:33:28.235Z,19.11
2024-01-20T13:36:32.597Z,19.13
2024-01-20T13:39:35.539Z,19.16
2024-01-20T13:42:39.845Z,19.14
2024-01-20T13:45:43.710Z,19.56
2024-01-20T13:48:49.288Z,19.60
2024-01-20T13:51:53.997Z,19.35
2024-01-20T13:54:56.872Z,19.23
2024-01-20T13:57:59.659Z,19.22
2024-01-20T14:01:04.734Z,17.54
2024-01-20T14:04:08.115Z,18.60
2024-01-20T14:07:12.526Z,18.95
2024-01-20T14:10:15.878Z,19.06
2024-01-20T14:13:18.579Z,19.07
2024-01-20T14:16:22.353Z,19.05
2024-01-20T14:19:25.773Z,19.06
2024-01-20T14:22:31.028Z,19.03
2024-01-20T14:25:33.890Z,19.05
2024-01-20T14:28:37.645Z,19.05
2024-01-20T14:31:46.985Z,19.01
2024-01-20T14:34:49.974Z,19.02
2024-01-20T14:37:54.540Z,18.99
2024-01-20T14:40:57.835Z,18.98
2024-01-20T14:44:00.614Z,18.99
2024-01-20T14:47:03.609Z,18.99
2024-01-20T14:50:08.278Z,18.96
2024-01-20T14:53:15.638Z,19.00
2024-01-20T14:56:18.612Z,18.93
2024-01-20T14:59:21.425Z,18.90
2024-01-20T15:02:24.217Z,18.92
2024-01-20T15:05:27.144Z,18.95
2024-01-20T15:08:31.359Z,18.96
2024-01-20T15:11:34.102Z,18.97
2024-01-20T15:14:37.005Z,18.99
2024-01-20T15:17:39.918Z,19.26
2024-01-20T15:20:42.760Z,19.27
2024-01-20T15:23:46.926Z,19.05
2024-01-20T15:26:49.975Z,19.09
2024-01-20T15:29:52.758Z,19.07
2024-01-20T15:32:55.665Z,19.09
2024-01-20T15:35:58.632Z,19.27
2024-01-20T15:39:03.103Z,19.17
2024-01-20T15:42:06.021Z,19.24
2024-01-20T15:45:09.457Z,19.24
2024-01-20T15:48:12.460Z,19.20
2024-01-20T15:51:15.390Z,19.17
2024-01-20T15:54:22.753Z,19.36
2024-01-20T15:57:25.539Z,19.17
2024-01-20T16:00:30.191Z,19.07
2024-01-20T16:03:33.316Z,19.02
2024-01-20T16:06:36.451Z,19.02
2024-01-20T16:09:40.706Z,19.06
2024-01-20T16:12:43.704Z,18.75
2024-01-20T16:15:46.623Z,17.20
2024-01-20T16:18:49.574Z,18.26
2024-01-20T16:21:52.978Z,18.42
2024-01-20T16:24:57.155Z,18.44
2024-01-20T16:27:59.968Z,18.42
2024-01-20T16:31:02.740Z,18.44
2024-01-20T16:34:06.018Z,18.43
2024-01-20T16:37:09.113Z,18.40
2024-01-20T16:40:13.353Z,18.33
2024-01-20T16:43:16.122Z,18.30
2024-01-20T16:46:19.133Z,18.27
2024-01-20T16:49:22.476Z,18.24
2024-01-20T16:52:25.293Z,18.25
2024-01-20T16:55:29.659Z,18.17
2024-01-20T16:58:32.512Z,18.11
2024-01-20T17:01:35.266Z,18.10
2024-01-20T17:04:38.441Z,18.05
2024-01-20T17:07:42.689Z,18.00
2024-01-20T17:10:47.420Z,18.00
2024-01-20T17:13:50.297Z,17.93
2024-01-20T17:16:53.176Z,17.96
2024-01-20T17:19:55.919Z,17.86
2024-01-20T17:23:00.293Z,17.90
2024-01-20T17:26:05.534Z,17.86
2024-01-20T17:29:08.304Z,17.81
2024-01-20T17:32:11.063Z,17.75
2024-01-20T17:35:14.452Z,17.73
2024-01-20T17:38:17.258Z,17.74
2024-01-20T17:41:21.378Z,17.70
2024-01-20T17:44:24.211Z,17.67
2024-01-20T17:47:27.358Z,17.69
2024-01-20T17:50:30.162Z,17.72
2024-01-20T17:53:35.184Z,17.79
2024-01-20T17:56:40.533Z,17.88
2024-01-20T17:59:44.330Z,17.94
2024-01-20T18:02:48.321Z,18.03
2024-01-20T18:05:51.260Z,18.09
2024-01-20T18:08:54.275Z,18.15
2024-01-20T18:12:00.302Z,18.27
2024-01-20T18:15:04.214Z,18.25
2024-01-20T18:18:07.227Z,18.33
2024-01-20T18:21:10.934Z,18.39
2024-01-20T18:24:13.917Z,18.43
2024-01-20T18:27:18.085Z,18.43
2024-01-20T18:30:20.977Z,18.42
2024-01-20T18:33:23.948Z,18.49
2024-01-20T18:36:26.805Z,18.48
2024-01-20T18:39:29.695Z,18.52
2024-01-20T18:42:34.000Z,18.56
2024-01-20T18:45:36.944Z,18.57
2024-01-20T18:48:39.900Z,18.59
2024-01-20T18:51:42.903Z,18.63
2024-01-20T18:54:46.020Z,18.77
2024-01-20T18:57:50.235Z,18.65
2024-01-20T19:01:02.476Z,18.62
2024-01-20T19:04:05.486Z,18.64
2024-01-20T19:07:08.523Z,18.65
2024-01-20T19:10:11.705Z,18.73
2024-01-20T19:13:15.889Z,18.70
2024-01-20T19:16:18.799Z,18.70
2024-01-20T19:19:21.733Z,18.69
2024-01-20T19:22:24.624Z,18.71
2024-01-20T19:25:27.550Z,18.75
2024-01-20T19:28:31.712Z,18.74
2024-01-20T19:31:34.479Z,18.69
2024-01-20T19:34:37.457Z,18.70
2024-01-20T19:37:40.827Z,18.72
2024-01-20T19:40:43.735Z,18.75
2024-01-20T19:43:47.920Z,18.59
2024-01-20T19:46:50.725Z,18.49
2024-01-20T19:49:54.721Z,18.46
2024-01-20T19:52:59.496Z,18.40
2024-01-20T19:56:05.539Z,18.47
2024-01-20T19:59:10.131Z,18.36
2024-01-20T20:02:13.770Z,18.31
2024-01-20T20:05:17.067Z,18.23
2024-01-20T20:08:23.986Z,18.21
2024-01-20T20:11:26.918Z,18.17
2024-01-20T20:14:30.997Z,18.14
2024-01-20T20:17:34.160Z,18.10
2024-01-20T20:20:37.073Z,18.06
2024-01-20T20:23:39.837Z,18.04
2024-01-20T20:26:43.679Z,17.96
2024-01-20T20:29:48.177Z,17.92
2024-01-20T20:32:51.019Z,17.89
2024-01-20T20:35:53.926Z,17.84
2024-01-20T20:38:56.823Z,17.80
2024-01-20T20:41:59.680Z,17.79
2024-01-20T20:45:04.683Z,17.74
2024-01-20T20:48:09.401Z,17.71
2024-01-20T20:51:12.680Z,17.69
2024-01-20T20:54:15.599Z,17.73
2024-01-20T20:57:19.596Z,17.66
2024-01-20T21:00:23.962Z,17.63
2024-01-20T21:03:27.425Z,17.60
2024-01-20T21:06:30.318Z,17.65
2024-01-20T21:09:33.285Z,17.81
2024-01-20T21:12:36.225Z,17.91
2024-01-20T21:15:41.943Z,18.05
2024-01-20T21:18:45.090Z,18.21
2024-01-20T21:21:49.060Z,18.25
2024-01-20T21:24:52.193Z,18.35
2024-01-20T21:27:54.984Z,18.46
2024-01-20T21:31:01.369Z,18.56
2024-01-20T21:34:04.330Z,18.48
2024-01-20T21:37:07.323Z,18.49
2024-01-20T21:40:10.626Z,18.52
2024-01-20T21:43:13.538Z,18.56
2024-01-20T21:46:17.941Z,18.55
2024-01-20T21:49:20.909Z,18.60
2024-01-20T21:52:23.766Z,18.62
2024-01-20T21:55:26.689Z,18.61
2024-01-20T21:58:29.545Z,18.82
2024-01-20T22:01:37.394Z,18.74
2024-01-20T22:04:40.244Z,18.77
2024-01-20T22:07:43.951Z,18.86
2024-01-20T22:10:47.322Z,18.84
2024-01-20T22:13:50.092Z,18.87
2024-01-20T22:16:54.250Z,18.90
2024-01-20T22:19:57.815Z,18.93
2024-01-20T22:23:06.039Z,18.90
2024-01-20T22:26:09.008Z,18.95
2024-01-20T22:29:19.402Z,19.01
2024-01-20T22:32:32.403Z,19.07
2024-01-20T22:35:35.756Z,19.02
2024-01-20T22:38:38.547Z,19.07
2024-01-20T22:41:41.380Z,19.15
2024-01-20T22:44:44.170Z,19.00
2024-01-20T22:47:49.005Z,19.02
2024-01-20T22:50:52.170Z,19.00
2024-01-20T22:53:54.978Z,18.99
2024-01-20T22:56:57.768Z,19.05
2024-01-20T23:00:00.549Z,19.03
2024-01-20T23:03:04.983Z,19.05
2024-01-20T23:06:08.632Z,19.05
2024-01-20T23:09:15.575Z,19.05
2024-01-20T23:12:20.581Z,19.09
2024-01-20T23:15:23.785Z,19.09
2024-01-20T23:18:28.226Z,19.08
2024-01-20T23:21:31.062Z,19.10
2024-01-20T23:24:33.820Z,19.10
2024-01-20T23:27:37.444Z,19.09
2024-01-20T23:30:41.913Z,19.12
2024-01-20T23:33:46.202Z,19.12
2024-01-20T23:36:49.130Z,19.13
2024-01-20T23:39:51.982Z,19.29
2024-01-20T23:42:54.916Z,19.16
2024-01-20T23:45:58.144Z,19.20
2024-01-20T23:49:02.290Z,19.17
2024-01-20T23:52:05.379Z,19.14
2024-01-20T23:55:08.477Z,19.32
2024-01-20T23:58:11.224Z,19.22
